sensor_id;sensor_type;location;lat;lon;timestamp;temperature;humidity
53748;DHT22;39655;53.210;5.768;2022-12-19T00:03:46;0.80;91.90
53748;DHT22;39655;53.210;5.768;2022-12-19T00:06:13;0.90;92.00
53748;DHT22;39655;53.210;5.768;2022-12-19T00:08:44;0.90;92.00
53748;DHT22;39655;53.210;5.768;2022-12-19T00:11:11;0.90;92.20
53748;DHT22;39655;53.210;5.768;2022-12-19T00:13:38;0.90;92.20
53748;DHT22;39655;53.210;5.768;2022-12-19T00:16:06;0.90;92.30
53748;DHT22;39655;53.210;5.768;2022-12-19T00:18:32;0.90;92.30
53748;DHT22;39655;53.210;5.768;2022-12-19T00:20:59;0.90;92.20
53748;DHT22;39655;53.210;5.768;2022-12-19T00:23:27;0.90;92.30
53748;DHT22;39655;53.210;5.768;2022-12-19T00:25:53;1.00;92.40
53748;DHT22;39655;53.210;5.768;2022-12-19T00:28:19;1.00;92.40
53748;DHT22;39655;53.210;5.768;2022-12-19T00:30:45;1.00;92.50
53748;DHT22;39655;53.210;5.768;2022-12-19T00:33:11;1.00;92.60
53748;DHT22;39655;53.210;5.768;2022-12-19T00:35:36;1.00;92.60
53748;DHT22;39655;53.210;5.768;2022-12-19T00:38:02;1.10;92.60
53748;DHT22;39655;53.210;5.768;2022-12-19T00:40:28;1.10;92.60
53748;DHT22;39655;53.210;5.768;2022-12-19T00:42:54;1.10;92.80
53748;DHT22;39655;53.210;5.768;2022-12-19T00:45:20;1.10;92.90
53748;DHT22;39655;53.210;5.768;2022-12-19T00:47:46;1.10;92.90
53748;DHT22;39655;53.210;5.768;2022-12-19T00:50:12;1.10;93.00
53748;DHT22;39655;53.210;5.768;2022-12-19T00:52:37;1.10;93.00
53748;DHT22;39655;53.210;5.768;2022-12-19T00:55:03;1.10;93.00
53748;DHT22;39655;53.210;5.768;2022-12-19T00:57:30;1.10;93.10
53748;DHT22;39655;53.210;5.768;2022-12-19T00:59:55;1.10;93.10
53748;DHT22;39655;53.210;5.768;2022-12-19T01:02:21;1.10;93.10
53748;DHT22;39655;53.210;5.768;2022-12-19T01:04:47;1.10;93.10
53748;DHT22;39655;53.210;5.768;2022-12-19T01:07:12;1.10;93.00
53748;DHT22;39655;53.210;5.768;2022-12-19T01:09:38;1.10;93.20
53748;DHT22;39655;53.210;5.768;2022-12-19T01:12:05;1.10;93.30
53748;DHT22;39655;53.210;5.768;2022-12-19T01:15:09;1.10;93.20
53748;DHT22;39655;53.210;5.768;2022-12-19T01:17:34;1.10;93.30
53748;DHT22;39655;53.210;5.768;2022-12-19T01:20:00;1.20;93.30
53748;DHT22;39655;53.210;5.768;2022-12-19T01:22:26;1.10;93.40
53748;DHT22;39655;53.210;5.768;2022-12-19T01:24:52;1.10;93.30
53748;DHT22;39655;53.210;5.768;2022-12-19T01:27:17;1.10;93.30
53748;DHT22;39655;53.210;5.768;2022-12-19T01:29:43;1.20;93.40
53748;DHT22;39655;53.210;5.768;2022-12-19T01:32:09;1.20;93.40
53748;DHT22;39655;53.210;5.768;2022-12-19T01:34:34;1.20;93.40
53748;DHT22;39655;53.210;5.768;2022-12-19T01:37:00;1.20;93.40
53748;DHT22;39655;53.210;5.768;2022-12-19T01:39:26;1.20;93.60
53748;DHT22;39655;53.210;5.768;2022-12-19T01:41:52;1.20;93.50
53748;DHT22;39655;53.210;5.768;2022-12-19T01:44:17;1.20;93.60
53748;DHT22;39655;53.210;5.768;2022-12-19T01:46:46;1.20;93.60
53748;DHT22;39655;53.210;5.768;2022-12-19T01:49:25;1.30;93.70
53748;DHT22;39655;53.210;5.768;2022-12-19T01:51:55;1.30;93.60
53748;DHT22;39655;53.210;5.768;2022-12-19T01:54:25;1.30;93.70
53748;DHT22;39655;53.210;5.768;2022-12-19T01:56:54;1.30;93.80
53748;DHT22;39655;53.210;5.768;2022-12-19T01:59:30;1.30;93.90
53748;DHT22;39655;53.210;5.768;2022-12-19T02:02:09;1.30;93.90
53748;DHT22;39655;53.210;5.768;2022-12-19T02:04:36;1.30;94.00
53748;DHT22;39655;53.210;5.768;2022-12-19T02:07:04;1.30;94.10
53748;DHT22;39655;53.210;5.768;2022-12-19T02:09:30;1.40;94.10
53748;DHT22;39655;53.210;5.768;2022-12-19T02:11:58;1.40;94.10
53748;DHT22;39655;53.210;5.768;2022-12-19T02:14:24;1.40;94.20
53748;DHT22;39655;53.210;5.768;2022-12-19T02:30:15;1.40;94.50
53748;DHT22;39655;53.210;5.768;2022-12-19T02:32:47;1.50;94.70
53748;DHT22;39655;53.210;5.768;2022-12-19T02:35:32;1.50;94.70
53748;DHT22;39655;53.210;5.768;2022-12-19T02:38:17;1.40;94.70
53748;DHT22;39655;53.210;5.768;2022-12-19T02:40:49;1.50;94.80
53748;DHT22;39655;53.210;5.768;2022-12-19T02:43:17;1.50;94.90
53748;DHT22;39655;53.210;5.768;2022-12-19T02:45:44;1.50;94.90
53748;DHT22;39655;53.210;5.768;2022-12-19T02:48:11;1.50;95.00
53748;DHT22;39655;53.210;5.768;2022-12-19T02:50:45;1.50;95.10
53748;DHT22;39655;53.210;5.768;2022-12-19T02:53:13;1.50;95.30
53748;DHT22;39655;53.210;5.768;2022-12-19T02:56:15;1.50;95.20
53748;DHT22;39655;53.210;5.768;2022-12-19T03:01:34;1.50;95.30
53748;DHT22;39655;53.210;5.768;2022-12-19T03:07:47;1.60;95.40
53748;DHT22;39655;53.210;5.768;2022-12-19T03:10:21;1.60;95.50
53748;DHT22;39655;53.210;5.768;2022-12-19T03:12:54;1.60;95.60
53748;DHT22;39655;53.210;5.768;2022-12-19T03:15:21;1.60;95.60
53748;DHT22;39655;53.210;5.768;2022-12-19T03:17:47;1.60;95.80
53748;DHT22;39655;53.210;5.768;2022-12-19T03:20:27;1.60;95.90
53748;DHT22;39655;53.210;5.768;2022-12-19T03:22:56;1.60;95.90
53748;DHT22;39655;53.210;5.768;2022-12-19T03:25:23;1.70;95.90
53748;DHT22;39655;53.210;5.768;2022-12-19T03:27:51;1.70;96.10
53748;DHT22;39655;53.210;5.768;2022-12-19T03:30:18;1.70;96.10
53748;DHT22;39655;53.210;5.768;2022-12-19T03:32:46;1.70;96.20
53748;DHT22;39655;53.210;5.768;2022-12-19T03:35:21;1.70;96.30
53748;DHT22;39655;53.210;5.768;2022-12-19T03:37:49;1.70;96.20
53748;DHT22;39655;53.210;5.768;2022-12-19T03:40:18;1.70;96.30
53748;DHT22;39655;53.210;5.768;2022-12-19T03:42:47;1.80;96.30
53748;DHT22;39655;53.210;5.768;2022-12-19T03:45:56;1.80;96.30
53748;DHT22;39655;53.210;5.768;2022-12-19T03:48:32;1.80;96.40
53748;DHT22;39655;53.210;5.768;2022-12-19T03:51:13;1.80;96.40
53748;DHT22;39655;53.210;5.768;2022-12-19T03:59:28;1.90;96.60
53748;DHT22;39655;53.210;5.768;2022-12-19T04:01:57;1.90;96.60
53748;DHT22;39655;53.210;5.768;2022-12-19T04:04:24;1.90;96.60
53748;DHT22;39655;53.210;5.768;2022-12-19T04:06:52;1.90;96.60
53748;DHT22;39655;53.210;5.768;2022-12-19T04:09:20;1.90;96.60
53748;DHT22;39655;53.210;5.768;2022-12-19T04:11:52;1.90;96.70
53748;DHT22;39655;53.210;5.768;2022-12-19T04:14:33;1.90;96.70
53748;DHT22;39655;53.210;5.768;2022-12-19T04:20:04;2.00;96.70
53748;DHT22;39655;53.210;5.768;2022-12-19T04:24:59;2.00;96.80
53748;DHT22;39655;53.210;5.768;2022-12-19T04:27:33;2.10;96.90
53748;DHT22;39655;53.210;5.768;2022-12-19T04:30:01;2.00;96.80
53748;DHT22;39655;53.210;5.768;2022-12-19T04:32:29;2.10;96.90
53748;DHT22;39655;53.210;5.768;2022-12-19T04:34:58;2.10;96.90
53748;DHT22;39655;53.210;5.768;2022-12-19T04:37:24;2.10;96.90
53748;DHT22;39655;53.210;5.768;2022-12-19T04:39:50;2.20;97.00
53748;DHT22;39655;53.210;5.768;2022-12-19T04:42:15;2.20;97.00
53748;DHT22;39655;53.210;5.768;2022-12-19T04:44:41;2.20;97.00
53748;DHT22;39655;53.210;5.768;2022-12-19T04:47:07;2.20;97.00
53748;DHT22;39655;53.210;5.768;2022-12-19T04:49:32;2.20;97.10
53748;DHT22;39655;53.210;5.768;2022-12-19T04:51:58;2.30;97.10
53748;DHT22;39655;53.210;5.768;2022-12-19T04:54:24;2.30;97.10
53748;DHT22;39655;53.210;5.768;2022-12-19T04:56:51;2.30;97.10
53748;DHT22;39655;53.210;5.768;2022-12-19T04:59:16;2.30;97.10
53748;DHT22;39655;53.210;5.768;2022-12-19T05:01:42;2.30;97.20
53748;DHT22;39655;53.210;5.768;2022-12-19T05:04:07;2.40;97.20
53748;DHT22;39655;53.210;5.768;2022-12-19T05:06:33;2.40;97.20
53748;DHT22;39655;53.210;5.768;2022-12-19T05:08:59;2.40;97.20
53748;DHT22;39655;53.210;5.768;2022-12-19T05:11:25;2.40;97.30
53748;DHT22;39655;53.210;5.768;2022-12-19T05:13:50;2.40;97.30
53748;DHT22;39655;53.210;5.768;2022-12-19T05:16:16;2.50;97.30
53748;DHT22;39655;53.210;5.768;2022-12-19T05:18:42;2.50;97.40
53748;DHT22;39655;53.210;5.768;2022-12-19T05:21:08;2.50;97.30
53748;DHT22;39655;53.210;5.768;2022-12-19T05:23:35;2.50;97.40
53748;DHT22;39655;53.210;5.768;2022-12-19T05:26:02;2.60;97.40
53748;DHT22;39655;53.210;5.768;2022-12-19T05:28:29;2.60;97.40
53748;DHT22;39655;53.210;5.768;2022-12-19T05:31:22;2.60;97.40
53748;DHT22;39655;53.210;5.768;2022-12-19T05:33:49;2.70;97.60
53748;DHT22;39655;53.210;5.768;2022-12-19T05:36:16;2.70;97.50
53748;DHT22;39655;53.210;5.768;2022-12-19T05:38:42;2.70;97.50
53748;DHT22;39655;53.210;5.768;2022-12-19T05:41:16;2.70;97.50
53748;DHT22;39655;53.210;5.768;2022-12-19T05:43:43;2.70;97.60
53748;DHT22;39655;53.210;5.768;2022-12-19T05:46:10;2.80;97.60
53748;DHT22;39655;53.210;5.768;2022-12-19T05:48:36;2.80;97.60
53748;DHT22;39655;53.210;5.768;2022-12-19T05:51:03;2.80;97.60
53748;DHT22;39655;53.210;5.768;2022-12-19T05:53:29;2.80;97.60
53748;DHT22;39655;53.210;5.768;2022-12-19T05:58:28;2.90;97.60
53748;DHT22;39655;53.210;5.768;2022-12-19T06:00:54;2.90;97.70
53748;DHT22;39655;53.210;5.768;2022-12-19T06:03:19;2.90;97.60
53748;DHT22;39655;53.210;5.768;2022-12-19T06:05:45;2.90;97.70
53748;DHT22;39655;53.210;5.768;2022-12-19T06:08:11;3.00;97.70
53748;DHT22;39655;53.210;5.768;2022-12-19T06:10:36;3.00;97.70
53748;DHT22;39655;53.210;5.768;2022-12-19T06:13:02;3.00;97.80
53748;DHT22;39655;53.210;5.768;2022-12-19T06:15:28;3.00;97.80
53748;DHT22;39655;53.210;5.768;2022-12-19T06:17:54;3.00;97.80
53748;DHT22;39655;53.210;5.768;2022-12-19T06:20:19;3.10;97.90
53748;DHT22;39655;53.210;5.768;2022-12-19T06:22:45;3.10;97.80
53748;DHT22;39655;53.210;5.768;2022-12-19T06:25:11;3.10;97.80
53748;DHT22;39655;53.210;5.768;2022-12-19T06:27:39;3.20;97.90
53748;DHT22;39655;53.210;5.768;2022-12-19T06:30:05;3.20;97.90
53748;DHT22;39655;53.210;5.768;2022-12-19T06:32:31;3.20;97.80
53748;DHT22;39655;53.210;5.768;2022-12-19T06:34:57;3.20;97.90
53748;DHT22;39655;53.210;5.768;2022-12-19T06:37:23;3.30;97.90
53748;DHT22;39655;53.210;5.768;2022-12-19T06:39:49;3.30;97.90
53748;DHT22;39655;53.210;5.768;2022-12-19T06:42:15;3.30;97.90
53748;DHT22;39655;53.210;5.768;2022-12-19T06:44:51;3.30;97.90
53748;DHT22;39655;53.210;5.768;2022-12-19T06:47:17;3.40;97.90
53748;DHT22;39655;53.210;5.768;2022-12-19T06:49:43;3.40;98.00
53748;DHT22;39655;53.210;5.768;2022-12-19T06:52:10;3.50;98.10
53748;DHT22;39655;53.210;5.768;2022-12-19T06:54:35;3.50;98.10
53748;DHT22;39655;53.210;5.768;2022-12-19T06:57:01;3.50;98.00
53748;DHT22;39655;53.210;5.768;2022-12-19T06:59:27;3.60;98.00
53748;DHT22;39655;53.210;5.768;2022-12-19T07:01:57;3.60;98.10
53748;DHT22;39655;53.210;5.768;2022-12-19T07:04:30;3.70;98.20
53748;DHT22;39655;53.210;5.768;2022-12-19T07:06:56;3.70;98.20
53748;DHT22;39655;53.210;5.768;2022-12-19T07:09:23;3.70;98.20
53748;DHT22;39655;53.210;5.768;2022-12-19T07:11:49;3.80;98.10
53748;DHT22;39655;53.210;5.768;2022-12-19T07:14:15;3.90;98.30
53748;DHT22;39655;53.210;5.768;2022-12-19T07:16:40;3.90;98.30
53748;DHT22;39655;53.210;5.768;2022-12-19T07:19:07;4.00;98.40
53748;DHT22;39655;53.210;5.768;2022-12-19T07:21:33;4.10;98.40
53748;DHT22;39655;53.210;5.768;2022-12-19T07:23:59;4.10;98.40
53748;DHT22;39655;53.210;5.768;2022-12-19T07:26:26;4.10;98.40
53748;DHT22;39655;53.210;5.768;2022-12-19T07:28:52;4.20;98.40
53748;DHT22;39655;53.210;5.768;2022-12-19T07:31:18;4.20;98.30
53748;DHT22;39655;53.210;5.768;2022-12-19T07:33:44;4.20;98.40
53748;DHT22;39655;53.210;5.768;2022-12-19T07:36:09;4.30;98.50
53748;DHT22;39655;53.210;5.768;2022-12-19T07:38:35;4.40;98.50
53748;DHT22;39655;53.210;5.768;2022-12-19T07:41:01;4.40;98.50
53748;DHT22;39655;53.210;5.768;2022-12-19T07:43:27;4.40;98.40
53748;DHT22;39655;53.210;5.768;2022-12-19T07:45:54;4.40;98.40
53748;DHT22;39655;53.210;5.768;2022-12-19T07:48:20;4.40;98.40
53748;DHT22;39655;53.210;5.768;2022-12-19T07:50:45;4.40;98.40
53748;DHT22;39655;53.210;5.768;2022-12-19T07:53:12;4.40;98.40
53748;DHT22;39655;53.210;5.768;2022-12-19T07:55:37;4.50;98.50
53748;DHT22;39655;53.210;5.768;2022-12-19T07:58:03;4.50;98.60
53748;DHT22;39655;53.210;5.768;2022-12-19T08:00:28;4.60;98.50
53748;DHT22;39655;53.210;5.768;2022-12-19T08:03:00;4.50;98.50
53748;DHT22;39655;53.210;5.768;2022-12-19T08:05:25;4.60;98.50
53748;DHT22;39655;53.210;5.768;2022-12-19T08:07:51;4.70;98.60
53748;DHT22;39655;53.210;5.768;2022-12-19T08:10:17;4.70;98.60
53748;DHT22;39655;53.210;5.768;2022-12-19T08:12:43;4.80;98.60
53748;DHT22;39655;53.210;5.768;2022-12-19T08:15:09;4.90;98.70
53748;DHT22;39655;53.210;5.768;2022-12-19T08:17:35;4.80;98.70
53748;DHT22;39655;53.210;5.768;2022-12-19T08:20:03;5.00;98.70
53748;DHT22;39655;53.210;5.768;2022-12-19T08:22:29;5.00;98.70
53748;DHT22;39655;53.210;5.768;2022-12-19T08:24:55;5.10;98.70
53748;DHT22;39655;53.210;5.768;2022-12-19T08:27:22;5.10;98.70
53748;DHT22;39655;53.210;5.768;2022-12-19T08:29:48;5.10;98.70
53748;DHT22;39655;53.210;5.768;2022-12-19T08:32:14;5.20;98.70
53748;DHT22;39655;53.210;5.768;2022-12-19T08:34:40;5.30;98.80
53748;DHT22;39655;53.210;5.768;2022-12-19T08:37:07;5.40;98.80
53748;DHT22;39655;53.210;5.768;2022-12-19T08:39:32;5.30;98.80
53748;DHT22;39655;53.210;5.768;2022-12-19T08:41:58;5.40;98.80
53748;DHT22;39655;53.210;5.768;2022-12-19T08:44:24;5.50;98.80
53748;DHT22;39655;53.210;5.768;2022-12-19T08:46:49;5.60;98.80
53748;DHT22;39655;53.210;5.768;2022-12-19T08:49:15;5.60;98.80
53748;DHT22;39655;53.210;5.768;2022-12-19T08:51:40;5.70;98.80
53748;DHT22;39655;53.210;5.768;2022-12-19T08:54:06;5.70;98.80
53748;DHT22;39655;53.210;5.768;2022-12-19T08:56:32;5.70;98.80
53748;DHT22;39655;53.210;5.768;2022-12-19T08:58:57;5.80;98.80
53748;DHT22;39655;53.210;5.768;2022-12-19T09:01:23;5.80;98.80
53748;DHT22;39655;53.210;5.768;2022-12-19T09:03:50;5.80;98.80
53748;DHT22;39655;53.210;5.768;2022-12-19T09:06:15;5.90;98.80
53748;DHT22;39655;53.210;5.768;2022-12-19T09:08:41;5.90;98.80
53748;DHT22;39655;53.210;5.768;2022-12-19T09:11:12;5.90;98.80
53748;DHT22;39655;53.210;5.768;2022-12-19T09:13:40;5.90;98.70
53748;DHT22;39655;53.210;5.768;2022-12-19T09:18:37;6.10;98.80
53748;DHT22;39655;53.210;5.768;2022-12-19T09:21:04;6.10;98.80
53748;DHT22;39655;53.210;5.768;2022-12-19T09:23:30;6.20;98.80
53748;DHT22;39655;53.210;5.768;2022-12-19T09:26:04;6.20;98.90
53748;DHT22;39655;53.210;5.768;2022-12-19T09:28:29;6.30;98.80
53748;DHT22;39655;53.210;5.768;2022-12-19T09:31:00;6.30;98.80
53748;DHT22;39655;53.210;5.768;2022-12-19T09:33:27;6.40;98.80
53748;DHT22;39655;53.210;5.768;2022-12-19T09:35:54;6.50;98.90
53748;DHT22;39655;53.210;5.768;2022-12-19T09:38:21;6.50;98.80
53748;DHT22;39655;53.210;5.768;2022-12-19T09:46:19;6.60;98.80
53748;DHT22;39655;53.210;5.768;2022-12-19T09:48:51;6.60;98.70
53748;DHT22;39655;53.210;5.768;2022-12-19T09:51:40;6.60;98.70
53748;DHT22;39655;53.210;5.768;2022-12-19T09:54:17;6.70;98.70
53748;DHT22;39655;53.210;5.768;2022-12-19T09:56:47;6.70;98.70
53748;DHT22;39655;53.210;5.768;2022-12-19T09:59:38;6.70;98.60
53748;DHT22;39655;53.210;5.768;2022-12-19T10:02:30;6.70;98.70
53748;DHT22;39655;53.210;5.768;2022-12-19T10:05:03;6.80;98.60
53748;DHT22;39655;53.210;5.768;2022-12-19T10:07:29;6.90;98.60
53748;DHT22;39655;53.210;5.768;2022-12-19T10:09:55;6.90;98.60
53748;DHT22;39655;53.210;5.768;2022-12-19T10:18:27;7.00;98.50
53748;DHT22;39655;53.210;5.768;2022-12-19T10:21:05;7.00;98.40
53748;DHT22;39655;53.210;5.768;2022-12-19T10:23:55;7.10;98.40
53748;DHT22;39655;53.210;5.768;2022-12-19T10:26:52;7.10;98.30
53748;DHT22;39655;53.210;5.768;2022-12-19T10:32:35;7.10;98.20
53748;DHT22;39655;53.210;5.768;2022-12-19T10:35:13;7.20;98.20
53748;DHT22;39655;53.210;5.768;2022-12-19T10:40:38;7.20;98.00
53748;DHT22;39655;53.210;5.768;2022-12-19T10:45:49;7.30;97.80
53748;DHT22;39655;53.210;5.768;2022-12-19T10:48:19;7.30;97.80
53748;DHT22;39655;53.210;5.768;2022-12-19T10:50:45;7.40;97.70
53748;DHT22;39655;53.210;5.768;2022-12-19T10:53:11;7.30;97.60
53748;DHT22;39655;53.210;5.768;2022-12-19T11:03:23;7.50;97.40
53748;DHT22;39655;53.210;5.768;2022-12-19T11:05:51;7.50;97.20
53748;DHT22;39655;53.210;5.768;2022-12-19T11:08:25;7.50;97.20
53748;DHT22;39655;53.210;5.768;2022-12-19T11:13:37;7.50;97.10
53748;DHT22;39655;53.210;5.768;2022-12-19T11:16:05;7.50;97.00
53748;DHT22;39655;53.210;5.768;2022-12-19T11:18:39;7.50;97.00
53748;DHT22;39655;53.210;5.768;2022-12-19T11:21:20;7.50;97.00
53748;DHT22;39655;53.210;5.768;2022-12-19T11:23:55;7.50;97.10
53748;DHT22;39655;53.210;5.768;2022-12-19T11:26:46;7.50;97.00
53748;DHT22;39655;53.210;5.768;2022-12-19T11:31:58;7.60;97.00
53748;DHT22;39655;53.210;5.768;2022-12-19T11:34:29;7.60;97.00
53748;DHT22;39655;53.210;5.768;2022-12-19T11:37:25;7.60;97.00
53748;DHT22;39655;53.210;5.768;2022-12-19T11:39:54;7.70;97.10
53748;DHT22;39655;53.210;5.768;2022-12-19T11:42:29;7.70;97.00
53748;DHT22;39655;53.210;5.768;2022-12-19T11:56:20;7.80;96.80
53748;DHT22;39655;53.210;5.768;2022-12-19T11:58:50;7.80;96.80
53748;DHT22;39655;53.210;5.768;2022-12-19T12:04:35;7.90;96.70
53748;DHT22;39655;53.210;5.768;2022-12-19T12:07:04;7.90;96.60
53748;DHT22;39655;53.210;5.768;2022-12-19T12:12:42;7.90;96.50
53748;DHT22;39655;53.210;5.768;2022-12-19T12:23:35;8.00;96.20
53748;DHT22;39655;53.210;5.768;2022-12-19T12:29:03;8.00;96.00
53748;DHT22;39655;53.210;5.768;2022-12-19T12:47:51;8.00;95.70
53748;DHT22;39655;53.210;5.768;2022-12-19T12:50:20;8.10;95.80
53748;DHT22;39655;53.210;5.768;2022-12-19T12:52:57;8.10;95.80
53748;DHT22;39655;53.210;5.768;2022-12-19T12:55:33;8.10;95.90
53748;DHT22;39655;53.210;5.768;2022-12-19T12:58:01;8.10;96.00
53748;DHT22;39655;53.210;5.768;2022-12-19T13:00:34;8.10;96.10
53748;DHT22;39655;53.210;5.768;2022-12-19T13:03:15;8.10;96.20
53748;DHT22;39655;53.210;5.768;2022-12-19T13:11:00;8.10;96.70
53748;DHT22;39655;53.210;5.768;2022-12-19T13:13:50;8.00;96.70
53748;DHT22;39655;53.210;5.768;2022-12-19T13:19:17;8.00;96.90
53748;DHT22;39655;53.210;5.768;2022-12-19T13:22:08;8.00;97.00
53748;DHT22;39655;53.210;5.768;2022-12-19T13:30:00;8.00;97.20
53748;DHT22;39655;53.210;5.768;2022-12-19T13:43:23;8.00;97.60
53748;DHT22;39655;53.210;5.768;2022-12-19T13:46:31;8.00;97.70
53748;DHT22;39655;53.210;5.768;2022-12-19T13:49:24;8.10;97.70
53748;DHT22;39655;53.210;5.768;2022-12-19T13:51:53;8.10;97.80
53748;DHT22;39655;53.210;5.768;2022-12-19T13:54:22;8.10;97.80
53748;DHT22;39655;53.210;5.768;2022-12-19T13:56:50;8.10;97.90
53748;DHT22;39655;53.210;5.768;2022-12-19T13:59:28;8.10;97.90
53748;DHT22;39655;53.210;5.768;2022-12-19T14:02:16;8.10;97.90
53748;DHT22;39655;53.210;5.768;2022-12-19T14:04:43;8.10;97.90
53748;DHT22;39655;53.210;5.768;2022-12-19T14:07:35;8.20;98.00
53748;DHT22;39655;53.210;5.768;2022-12-19T14:10:04;8.20;98.00
53748;DHT22;39655;53.210;5.768;2022-12-19T14:12:34;8.20;98.00
53748;DHT22;39655;53.210;5.768;2022-12-19T14:15:36;8.20;98.00
53748;DHT22;39655;53.210;5.768;2022-12-19T14:20:44;8.20;98.00
53748;DHT22;39655;53.210;5.768;2022-12-19T14:23:13;8.20;98.00
53748;DHT22;39655;53.210;5.768;2022-12-19T14:28:13;8.20;98.00
53748;DHT22;39655;53.210;5.768;2022-12-19T14:30:54;8.20;98.00
53748;DHT22;39655;53.210;5.768;2022-12-19T14:33:30;8.20;98.00
53748;DHT22;39655;53.210;5.768;2022-12-19T14:35:57;8.20;97.90
53748;DHT22;39655;53.210;5.768;2022-12-19T14:38:33;8.20;97.90
53748;DHT22;39655;53.210;5.768;2022-12-19T14:41:00;8.10;97.90
53748;DHT22;39655;53.210;5.768;2022-12-19T14:43:28;8.10;97.90
53748;DHT22;39655;53.210;5.768;2022-12-19T14:46:24;8.10;97.90
53748;DHT22;39655;53.210;5.768;2022-12-19T14:48:58;8.10;97.90
53748;DHT22;39655;53.210;5.768;2022-12-19T14:51:36;8.10;97.90
53748;DHT22;39655;53.210;5.768;2022-12-19T14:56:45;8.10;97.80
53748;DHT22;39655;53.210;5.768;2022-12-19T14:59:33;8.10;97.80
53748;DHT22;39655;53.210;5.768;2022-12-19T15:07:05;8.00;97.70
53748;DHT22;39655;53.210;5.768;2022-12-19T15:09:52;8.10;97.70
53748;DHT22;39655;53.210;5.768;2022-12-19T15:12:34;8.10;97.80
53748;DHT22;39655;53.210;5.768;2022-12-19T15:15:24;8.10;97.70
53748;DHT22;39655;53.210;5.768;2022-12-19T15:17:59;8.10;97.70
53748;DHT22;39655;53.210;5.768;2022-12-19T15:20:24;8.10;97.70
53748;DHT22;39655;53.210;5.768;2022-12-19T15:22:50;8.10;97.70
53748;DHT22;39655;53.210;5.768;2022-12-19T15:25:17;8.20;97.70
53748;DHT22;39655;53.210;5.768;2022-12-19T15:27:44;8.10;97.70
53748;DHT22;39655;53.210;5.768;2022-12-19T15:30:19;8.10;97.70
53748;DHT22;39655;53.210;5.768;2022-12-19T15:32:45;8.10;97.70
53748;DHT22;39655;53.210;5.768;2022-12-19T15:35:13;8.10;97.70
53748;DHT22;39655;53.210;5.768;2022-12-19T15:37:39;8.20;97.70
53748;DHT22;39655;53.210;5.768;2022-12-19T15:40:05;8.20;97.70
53748;DHT22;39655;53.210;5.768;2022-12-19T15:42:31;8.20;97.60
53748;DHT22;39655;53.210;5.768;2022-12-19T15:44:57;8.20;97.60
53748;DHT22;39655;53.210;5.768;2022-12-19T15:47:30;8.20;97.50
53748;DHT22;39655;53.210;5.768;2022-12-19T15:49:56;8.20;97.50
53748;DHT22;39655;53.210;5.768;2022-12-19T15:52:26;8.30;97.50
53748;DHT22;39655;53.210;5.768;2022-12-19T15:54:51;8.20;97.40
53748;DHT22;39655;53.210;5.768;2022-12-19T15:57:18;8.30;97.30
53748;DHT22;39655;53.210;5.768;2022-12-19T15:59:47;8.30;97.20
53748;DHT22;39655;53.210;5.768;2022-12-19T16:02:21;8.20;97.20
53748;DHT22;39655;53.210;5.768;2022-12-19T16:04:49;8.20;97.10
53748;DHT22;39655;53.210;5.768;2022-12-19T16:07:22;8.20;97.10
53748;DHT22;39655;53.210;5.768;2022-12-19T16:09:49;8.20;97.00
53748;DHT22;39655;53.210;5.768;2022-12-19T16:12:17;8.20;96.90
53748;DHT22;39655;53.210;5.768;2022-12-19T16:14:44;8.20;96.90
53748;DHT22;39655;53.210;5.768;2022-12-19T16:17:15;8.20;96.80
53748;DHT22;39655;53.210;5.768;2022-12-19T16:19:42;8.20;96.80
53748;DHT22;39655;53.210;5.768;2022-12-19T16:22:20;8.20;96.80
53748;DHT22;39655;53.210;5.768;2022-12-19T16:24:47;8.10;96.80
53748;DHT22;39655;53.210;5.768;2022-12-19T16:29:43;8.10;96.80
53748;DHT22;39655;53.210;5.768;2022-12-19T16:32:12;8.10;96.70
53748;DHT22;39655;53.210;5.768;2022-12-19T16:34:38;8.10;96.70
53748;DHT22;39655;53.210;5.768;2022-12-19T16:37:04;8.10;96.50
53748;DHT22;39655;53.210;5.768;2022-12-19T16:39:29;8.10;96.50
53748;DHT22;39655;53.210;5.768;2022-12-19T16:41:55;8.10;96.50
53748;DHT22;39655;53.210;5.768;2022-12-19T16:44:22;8.10;96.40
53748;DHT22;39655;53.210;5.768;2022-12-19T16:46:49;8.10;96.40
53748;DHT22;39655;53.210;5.768;2022-12-19T16:49:17;8.10;96.30
53748;DHT22;39655;53.210;5.768;2022-12-19T16:51:43;8.10;96.40
53748;DHT22;39655;53.210;5.768;2022-12-19T16:54:11;8.10;96.30
53748;DHT22;39655;53.210;5.768;2022-12-19T16:56:50;8.10;96.30
53748;DHT22;39655;53.210;5.768;2022-12-19T16:59:28;8.10;96.30
53748;DHT22;39655;53.210;5.768;2022-12-19T17:01:56;8.10;96.30
53748;DHT22;39655;53.210;5.768;2022-12-19T17:04:24;8.10;96.20
53748;DHT22;39655;53.210;5.768;2022-12-19T17:06:51;8.10;96.20
53748;DHT22;39655;53.210;5.768;2022-12-19T17:09:19;8.10;96.20
53748;DHT22;39655;53.210;5.768;2022-12-19T17:11:58;8.20;96.10
53748;DHT22;39655;53.210;5.768;2022-12-19T17:14:30;8.20;95.90
53748;DHT22;39655;53.210;5.768;2022-12-19T17:16:59;8.20;95.90
53748;DHT22;39655;53.210;5.768;2022-12-19T17:19:35;8.20;95.80
53748;DHT22;39655;53.210;5.768;2022-12-19T17:22:02;8.20;95.70
53748;DHT22;39655;53.210;5.768;2022-12-19T17:24:27;8.20;95.60
53748;DHT22;39655;53.210;5.768;2022-12-19T17:26:55;8.20;95.60
53748;DHT22;39655;53.210;5.768;2022-12-19T17:29:21;8.20;95.50
53748;DHT22;39655;53.210;5.768;2022-12-19T17:31:47;8.20;95.50
53748;DHT22;39655;53.210;5.768;2022-12-19T17:34:25;8.20;95.40
53748;DHT22;39655;53.210;5.768;2022-12-19T17:36:52;8.20;95.30
53748;DHT22;39655;53.210;5.768;2022-12-19T17:39:20;8.20;95.30
53748;DHT22;39655;53.210;5.768;2022-12-19T17:41:47;8.20;95.20
53748;DHT22;39655;53.210;5.768;2022-12-19T17:44:12;8.20;95.10
53748;DHT22;39655;53.210;5.768;2022-12-19T17:46:38;8.20;94.90
53748;DHT22;39655;53.210;5.768;2022-12-19T17:49:04;8.20;94.90
53748;DHT22;39655;53.210;5.768;2022-12-19T17:51:30;8.20;94.90
53748;DHT22;39655;53.210;5.768;2022-12-19T17:53:55;8.10;94.80
53748;DHT22;39655;53.210;5.768;2022-12-19T17:56:21;8.00;94.80
53748;DHT22;39655;53.210;5.768;2022-12-19T17:58:47;8.00;94.80
53748;DHT22;39655;53.210;5.768;2022-12-19T18:01:21;7.90;94.80
53748;DHT22;39655;53.210;5.768;2022-12-19T18:03:49;7.90;94.80
53748;DHT22;39655;53.210;5.768;2022-12-19T18:06:15;7.90;94.70
53748;DHT22;39655;53.210;5.768;2022-12-19T18:08:42;7.90;94.80
53748;DHT22;39655;53.210;5.768;2022-12-19T18:11:20;7.80;94.70
53748;DHT22;39655;53.210;5.768;2022-12-19T18:13:46;7.80;94.80
53748;DHT22;39655;53.210;5.768;2022-12-19T18:16:19;7.70;94.80
53748;DHT22;39655;53.210;5.768;2022-12-19T18:18:45;7.80;94.90
53748;DHT22;39655;53.210;5.768;2022-12-19T18:21:16;7.70;95.00
53748;DHT22;39655;53.210;5.768;2022-12-19T18:23:42;7.70;95.00
53748;DHT22;39655;53.210;5.768;2022-12-19T18:26:10;7.70;95.00
53748;DHT22;39655;53.210;5.768;2022-12-19T18:28:46;7.70;95.00
53748;DHT22;39655;53.210;5.768;2022-12-19T18:31:22;7.70;95.10
53748;DHT22;39655;53.210;5.768;2022-12-19T18:33:48;7.70;95.00
53748;DHT22;39655;53.210;5.768;2022-12-19T18:36:23;7.70;95.20
53748;DHT22;39655;53.210;5.768;2022-12-19T18:38:50;7.80;95.10